Time;durP1;ratioP1;P1;durP2;ratioP2;P2;SDS_P1;SDS_P2;PMS_P1;PMS_P2;Temp;Humidity;BMP_temperature;BMP_pressure;BME280_temperature;BME280_humidity;BME280_pressure;Samples;Min_cycle;Max_cycle;Signal;HPM_P1;HPM_P2
2023/04/28 00:02:47;;;;;;;2.23;1.83;;;;;;;10.43;66.82;60758.88;5011735;28;20211;-69
2023/04/28 00:05:35;;;;;;;4.27;2.30;;;;;;;10.73;66.22;60789.50;5012733;28;20168;-69
2023/04/28 00:08:36;;;;;;;2.73;2.30;;;;;;;10.74;65.03;60796.28;5011660;28;20184;-67
2023/04/28 00:11:23;;;;;;;5.47;2.63;;;;;;;10.60;64.67;60776.00;5011475;28;20208;-67
2023/04/28 00:13:53;;;;;;;2.97;2.13;;;;;;;10.81;64.27;60816.38;5010212;28;20187;-67
2023/04/28 00:16:20;;;;;;;2.70;2.13;;;;;;;10.72;65.81;60816.47;5010735;28;20184;-68
2023/04/28 00:18:50;;;;;;;2.80;2.30;;;;;;;10.67;65.91;60831.84;5012045;28;20179;-68
2023/04/28 00:21:20;;;;;;;2.27;2.00;;;;;;;10.79;66.33;60789.16;5011924;28;20303;-68
2023/04/28 00:23:53;;;;;;;2.60;2.13;;;;;;;10.70;66.90;60776.47;5012045;28;20188;-68
2023/04/28 00:26:50;;;;;;;2.77;2.20;;;;;;;10.63;67.30;60763.50;5011853;28;20189;-66
2023/04/28 00:29:44;;;;;;;2.40;2.20;;;;;;;10.70;66.83;60829.53;5010200;28;20176;-67
2023/04/28 00:32:32;;;;;;;2.67;2.07;;;;;;;10.54;67.75;60781.47;5011876;28;20269;-67
2023/04/28 00:35:27;;;;;;;3.00;2.17;;;;;;;10.48;68.65;60769.63;5011625;28;20650;-67
2023/04/28 00:38:12;;;;;;;2.90;2.50;;;;;;;10.39;68.05;60744.75;5011195;28;20187;-67
2023/04/28 00:40:38;;;;;;;2.60;2.27;;;;;;;10.29;69.62;60699.75;5010930;28;20180;-67
2023/04/28 00:43:04;;;;;;;2.53;2.27;;;;;;;10.22;68.94;60751.16;5012307;28;20263;-67
2023/04/28 00:48:52;;;;;;;3.93;2.53;;;;;;;10.22;70.75;60748.06;5012311;28;20735;-68
2023/04/28 00:51:17;;;;;;;2.87;2.40;;;;;;;10.07;71.29;60750.16;5015917;28;20211;-68
2023/04/28 00:53:43;;;;;;;3.13;2.77;;;;;;;9.71;73.06;60684.19;5014488;28;20184;-67
2023/04/28 00:56:09;;;;;;;3.93;2.50;;;;;;;10.05;73.68;60635.06;5015784;28;20184;-67
2023/04/28 00:58:34;;;;;;;3.57;2.40;;;;;;;9.81;75.39;60694.84;5014840;28;20235;-67
2023/04/28 01:01:04;;;;;;;3.73;2.70;;;;;;;9.68;75.99;60703.75;5015198;28;20191;-65
2023/04/28 01:03:30;;;;;;;3.57;2.43;;;;;;;9.39;78.08;60689.03;5015726;28;20172;-67
2023/04/28 01:05:57;;;;;;;5.30;2.70;;;;;;;9.73;78.52;60696.63;5015460;28;20172;-68
2023/04/28 01:09:12;;;;;;;3.33;2.73;;;;;;;9.74;77.53;60679.91;5014447;28;20263;-66
2023/04/28 01:12:33;;;;;;;3.93;2.73;;;;;;;9.67;77.61;60692.44;5014897;28;20277;-67
2023/04/28 01:15:03;;;;;;;3.47;2.70;;;;;;;9.43;79.45;60887.25;5014681;28;20267;-68
2023/04/28 01:17:28;;;;;;;3.90;2.90;;;;;;;9.55;80.21;60678.97;5015221;28;20307;-68
2023/04/28 01:19:54;;;;;;;4.93;2.73;;;;;;;9.14;81.76;60646.78;5015088;28;20667;-68
2023/04/28 01:22:20;;;;;;;6.37;2.90;;;;;;;9.08;83.48;60616.56;5015245;28;20233;-68
2023/04/28 01:24:45;;;;;;;4.60;2.90;;;;;;;8.99;86.37;60627.38;5015562;28;20237;-68
2023/04/28 01:27:43;;;;;;;4.43;2.80;;;;;;;9.07;88.90;60630.72;5015029;28;20549;-67
2023/04/28 01:30:09;;;;;;;5.17;3.00;;;;;;;8.95;90.73;60645.81;5015350;28;20202;-67
2023/04/28 01:32:35;;;;;;;3.20;2.90;;;;;;;8.74;89.82;60617.16;5015253;28;20176;-67
2023/04/28 01:35:00;;;;;;;4.07;3.10;;;;;;;8.63;89.97;60585.00;5015102;28;20643;-67
2023/04/28 01:40:47;;;;;;;3.57;2.83;;;;;;;8.39;91.65;60657.31;5013120;28;20190;-68
2023/04/28 01:43:13;;;;;;;3.87;2.77;;;;;;;8.49;94.03;60546.38;5014260;28;20276;-68
2023/04/28 01:45:38;;;;;;;8.83;3.13;;;;;;;8.57;92.58;60608.25;5015013;28;20211;-68
2023/04/28 01:48:04;;;;;;;5.47;2.93;;;;;;;8.16;93.15;60542.41;5020666;28;20698;-68
2023/04/28 01:50:29;;;;;;;3.83;2.23;;;;;;;8.48;92.29;60552.34;5014457;28;20199;-68
2023/04/28 01:52:54;;;;;;;4.43;2.93;;;;;;;8.31;92.37;60618.34;5013032;28;20184;-67
2023/04/28 01:55:20;;;;;;;4.77;2.90;;;;;;;8.05;91.76;60535.16;5014703;28;20180;-67
2023/04/28 01:57:45;;;;;;;4.00;3.03;;;;;;;8.43;91.43;60583.47;5014780;28;20204;-68
2023/04/28 02:00:11;;;;;;;4.23;2.80;;;;;;;8.10;91.42;60487.94;5012554;28;20274;-68
2023/04/28 02:02:36;;;;;;;3.77;2.77;;;;;;;8.43;90.59;60568.22;5014105;28;20667;-67
2023/04/28 02:05:02;;;;;;;5.67;3.40;;;;;;;8.45;91.82;60580.06;5014047;28;20192;-68
2023/04/28 02:07:27;;;;;;;4.87;3.10;;;;;;;8.05;92.30;60545.34;5013671;28;20164;-67
2023/04/28 02:09:53;;;;;;;5.73;2.97;;;;;;;8.30;93.24;60598.84;5014222;28;20165;-67
2023/04/28 02:12:18;;;;;;;6.07;2.80;;;;;;;7.87;92.59;60523.72;5013858;28;20179;-68
2023/04/28 02:14:43;;;;;;;4.80;2.90;;;;;;;7.80;92.83;60538.19;5014077;28;20176;-67
2023/04/28 02:17:09;;;;;;;3.77;2.77;;;;;;;8.17;91.08;60732.34;5013823;28;20603;-67
2023/04/28 02:19:34;;;;;;;3.93;2.60;;;;;;;7.97;90.42;60534.94;5012537;28;20187;-66
2023/04/28 02:21:59;;;;;;;3.37;2.50;;;;;;;8.18;91.06;60570.69;5013678;28;20204;-68
2023/04/28 02:24:25;;;;;;;3.40;2.90;;;;;;;8.14;91.82;60496.94;5013867;28;20258;-68
2023/04/28 02:26:51;;;;;;;3.70;2.70;;;;;;;7.74;91.73;60499.00;5013724;28;20168;-66
2023/04/28 02:29:16;;;;;;;3.90;2.67;;;;;;;7.80;92.31;60515.88;5013558;28;20649;-67
2023/04/28 02:31:42;;;;;;;6.33;3.20;;;;;;;8.09;94.40;60545.31;5013313;28;20266;-68
2023/04/28 02:34:07;;;;;;;4.43;3.20;;;;;;;7.98;93.39;60532.97;5012077;28;20176;-68
2023/04/28 02:36:32;;;;;;;6.10;2.60;;;;;;;7.85;92.43;60531.66;5013625;28;20270;-68
2023/04/28 02:38:58;;;;;;;4.43;2.77;;;;;;;7.67;92.65;60513.47;5013783;28;20529;-66
2023/04/28 02:41:23;;;;;;;4.37;3.17;;;;;;;7.92;93.66;60519.16;5013541;28;20259;-66
2023/04/28 02:43:49;;;;;;;3.37;2.67;;;;;;;7.66;93.11;60492.00;5013995;28;20168;-66
2023/04/28 02:46:14;;;;;;;4.47;2.60;;;;;;;7.78;92.88;60551.75;5014078;28;20215;-67
2023/04/28 02:48:40;;;;;;;3.60;2.80;;;;;;;7.55;91.66;60485.31;5019397;28;20205;-68
2023/04/28 02:51:05;;;;;;;3.27;2.33;;;;;;;7.84;90.45;60492.41;5013459;28;20196;-67
2023/04/28 02:53:30;;;;;;;3.20;2.70;;;;;;;7.79;89.71;60517.31;5013430;28;20261;-67
2023/04/28 02:55:56;;;;;;;5.53;2.63;;;;;;;7.79;89.51;60511.66;5012878;28;20188;-66
2023/04/28 02:58:21;;;;;;;6.73;2.70;;;;;;;7.29;89.17;60514.59;5013797;28;20220;-68
2023/04/28 03:00:47;;;;;;;3.80;2.57;;;;;;;7.65;89.52;60463.47;5013414;28;20536;-67
2023/04/28 03:03:12;;;;;;;3.43;2.40;;;;;;;7.73;89.07;60672.69;5013512;28;20191;-68
2023/04/28 03:05:38;;;;;;;3.83;2.47;;;;;;;7.66;88.71;60479.84;5013451;28;20675;-67
2023/04/28 03:08:03;;;;;;;2.60;2.40;;;;;;;7.48;88.37;60495.25;5013177;28;20532;-69
2023/04/28 03:10:29;;;;;;;4.10;2.30;;;;;;;7.65;88.20;60486.34;5013374;28;20208;-68
2023/04/28 03:12:54;;;;;;;2.80;2.20;;;;;;;7.44;87.77;60519.28;5013345;28;20178;-68
2023/04/28 03:15:20;;;;;;;2.93;2.47;;;;;;;7.63;88.24;60514.59;5013844;28;20183;-66
2023/04/28 03:17:45;;;;;;;4.03;2.60;;;;;;;7.51;89.35;60466.16;5013520;28;20180;-68
2023/04/28 03:20:11;;;;;;;4.67;2.53;;;;;;;7.48;86.91;60487.63;5012933;28;20202;-67
2023/04/28 03:22:37;;;;;;;3.00;2.33;;;;;;;7.33;88.27;60473.34;5008031;28;20595;-67
2023/04/28 03:25:02;;;;;;;2.90;2.27;;;;;;;7.56;87.80;60519.47;5011700;28;20180;-68
2023/04/28 03:27:28;;;;;;;2.47;2.10;;;;;;;7.60;89.00;60523.38;5012836;28;20262;-69
2023/04/28 03:29:53;;;;;;;3.57;2.80;;;;;;;7.48;89.32;60485.09;5012891;28;20187;-68
2023/04/28 03:32:19;;;;;;;4.27;2.53;;;;;;;7.47;88.74;60486.50;5012794;28;20183;-66
2023/04/28 03:34:45;;;;;;;2.57;2.30;;;;;;;7.54;87.99;60463.84;5012688;28;20199;-66
2023/04/28 03:37:10;;;;;;;3.93;2.80;;;;;;;7.06;87.65;60441.69;5011335;28;20220;-66
2023/04/28 03:39:35;;;;;;;4.83;2.40;;;;;;;7.64;87.87;60701.25;5012902;28;20275;-69
2023/04/28 03:42:01;;;;;;;6.30;2.80;;;;;;;7.82;85.19;60513.03;5012791;28;20204;-69
2023/04/28 03:44:26;;;;;;;4.30;2.23;;;;;;;8.43;82.21;60596.19;5012541;28;20624;-68
2023/04/28 03:46:52;;;;;;;2.90;2.13;;;;;;;9.22;76.99;60670.50;5012838;28;20207;-67
2023/04/28 03:49:17;;;;;;;3.37;2.10;;;;;;;9.75;72.07;60877.97;5018340;28;20180;-67
2023/04/28 03:51:42;;;;;;;5.90;2.57;;;;;;;10.35;69.58;60915.84;5012579;28;20698;-67
2023/04/28 03:54:08;;;;;;;2.40;2.20;;;;;;;10.62;68.04;60757.84;5012397;28;20176;-68
2023/04/28 03:56:33;;;;;;;2.77;2.23;;;;;;;11.24;64.80;60821.28;5012545;28;20556;-68
2023/04/28 03:58:59;;;;;;;3.67;2.70;;;;;;;11.73;63.65;60831.84;5010782;28;20281;-67
2023/04/28 04:02:14;;;;;;;3.50;2.30;;;;;;;12.30;62.10;60982.47;5012521;28;20674;-66
2023/04/28 04:04:41;;;;;;;2.43;2.23;;;;;;;12.99;58.78;61002.72;5012671;28;20217;-67
2023/04/28 04:07:07;;;;;;;3.75;2.83;;;;;;;12.89;56.47;60988.91;5012325;28;20636;-69
2023/04/28 04:09:32;;;;;;;4.88;3.15;;;;;;;13.50;54.87;61055.09;5012908;28;20187;-67
2023/04/28 04:11:57;;;;;;;3.40;2.35;;;;;;;12.89;56.37;60991.47;5012169;28;20215;-67
2023/04/28 04:14:23;;;;;;;2.72;1.98;;;;;;;12.32;57.45;60911.03;5012040;28;20639;-66
2023/04/28 04:16:48;;;;;;;2.55;2.28;;;;;;;11.92;58.02;60876.25;5010884;28;20213;-67
2023/04/28 04:19:14;;;;;;;4.70;2.17;;;;;;;11.71;57.91;60863.38;5012453;28;20180;-68
2023/04/28 04:21:39;;;;;;;2.42;2.03;;;;;;;12.05;58.60;60908.22;5012217;28;20187;-67
2023/04/28 04:24:05;;;;;;;3.78;2.60;;;;;;;11.62;59.32;60883.38;5011713;28;20621;-69
2023/04/28 04:26:31;;;;;;;2.58;2.15;;;;;;;11.74;60.37;60861.69;5012484;28;20238;-69
2023/04/28 04:28:56;;;;;;;5.72;2.28;;;;;;;11.86;58.96;60885.41;5011985;28;20180;-69
2023/04/28 04:31:21;;;;;;;5.13;2.55;;;;;;;11.84;59.58;60903.06;5011509;28;20298;-68
2023/04/28 04:33:47;;;;;;;4.88;2.58;;;;;;;12.04;58.37;60920.47;5012345;28;20164;-69
2023/04/28 04:36:13;;;;;;;2.70;2.25;;;;;;;11.53;60.57;60897.41;5011996;28;20214;-68
2023/04/28 04:38:38;;;;;;;2.85;2.30;;;;;;;11.49;60.96;60869.31;5011916;28;20183;-69
2023/04/28 04:41:04;;;;;;;2.03;1.85;;;;;;;11.16;61.36;60819.41;5012093;28;20333;-68
2023/04/28 04:43:29;;;;;;;3.75;2.45;;;;;;;11.19;62.34;60863.69;5012013;28;20631;-68
2023/04/28 04:45:55;;;;;;;4.40;2.38;;;;;;;10.97;62.49;60770.50;5011450;28;20242;-70
2023/04/28 04:48:20;;;;;;;3.00;2.35;;;;;;;10.95;63.79;60765.69;5015527;28;20176;-70
2023/04/28 04:50:45;;;;;;;3.28;2.60;;;;;;;10.64;64.59;60991.91;5012400;28;20199;-69
2023/04/28 04:53:11;;;;;;;4.03;2.17;;;;;;;11.02;63.75;60801.66;5009446;28;20176;-70
2023/04/28 04:55:37;;;;;;;3.28;2.58;;;;;;;10.91;63.66;60791.88;5011369;28;20670;-68
2023/04/28 04:58:03;;;;;;;4.15;2.70;;;;;;;10.81;64.06;60803.63;5011493;28;20258;-69
2023/04/28 05:00:28;;;;;;;2.60;2.13;;;;;;;10.30;64.58;60742.28;5011095;28;20184;-70
2023/04/28 05:02:53;;;;;;;4.60;2.58;;;;;;;10.58;65.55;60791.66;5011084;28;20168;-70
2023/04/28 05:05:19;;;;;;;3.85;2.78;;;;;;;10.50;65.18;60979.25;5011445;28;20179;-69
2023/04/28 05:07:45;;;;;;;11.13;3.10;;;;;;;10.55;67.34;60780.59;5011243;28;20259;-68
2023/04/28 05:10:10;;;;;;;2.47;2.28;;;;;;;10.52;66.96;60746.03;5010808;28;20200;-68
2023/04/28 05:12:37;;;;;;;2.58;2.38;;;;;;;10.57;67.53;60746.53;5008427;28;20176;-69
2023/04/28 05:15:06;;;;;;;4.25;2.40;;;;;;;10.64;67.14;60747.31;5008788;28;20180;-68
2023/04/28 05:17:33;;;;;;;3.13;2.80;;;;;;;10.61;66.33;60766.91;5009778;28;20574;-69
2023/04/28 05:19:58;;;;;;;2.63;2.42;;;;;;;10.25;66.82;60708.03;5010700;28;20187;-68
2023/04/28 05:22:24;;;;;;;3.08;2.20;;;;;;;10.33;65.61;60724.66;5010863;28;20176;-69
2023/04/28 05:24:50;;;;;;;2.92;2.55;;;;;;;10.40;66.13;60978.19;5010942;28;20208;-68
2023/04/28 05:27:15;;;;;;;2.97;2.50;;;;;;;10.35;65.85;60781.09;5010903;28;20214;-67
2023/04/28 05:29:41;;;;;;;3.38;2.53;;;;;;;10.47;65.33;60738.41;5010961;28;20190;-68
2023/04/28 05:32:06;;;;;;;3.35;2.38;;;;;;;11.01;64.42;60821.56;5009862;28;20208;-70
2023/04/28 05:34:31;;;;;;;3.88;2.30;;;;;;;11.13;65.28;60821.16;5010098;28;20627;-69
2023/04/28 05:36:57;;;;;;;2.47;2.10;;;;;;;11.14;64.93;60830.50;5013808;28;20172;-68
2023/04/28 05:39:22;;;;;;;2.58;2.33;;;;;;;10.99;63.70;60995.06;5013556;28;20186;-68
2023/04/28 05:41:48;;;;;;;3.65;2.53;;;;;;;10.66;62.87;60802.63;5014490;28;20188;-68
2023/04/28 05:44:13;;;;;;;2.72;2.30;;;;;;;10.66;63.89;60756.09;5014016;28;20180;-68
2023/04/28 05:46:38;;;;;;;3.28;2.83;;;;;;;11.13;62.26;60833.94;5014764;28;20176;-69
2023/04/28 05:49:04;;;;;;;2.53;2.30;;;;;;;11.35;63.20;60826.00;5019973;28;20184;-68
2023/04/28 05:51:29;;;;;;;3.75;2.47;;;;;;;11.30;61.30;61055.59;5013631;28;20671;-69
2023/04/28 05:53:55;;;;;;;3.03;2.38;;;;;;;11.40;62.80;60862.31;5013119;28;20223;-69
2023/04/28 05:56:21;;;;;;;2.78;2.35;;;;;;;11.21;61.95;61060.22;5012790;28;20215;-69
2023/04/28 05:58:46;;;;;;;3.70;2.17;;;;;;;11.33;62.47;60851.31;5013077;28;20234;-69
2023/04/28 06:01:12;;;;;;;4.28;2.47;;;;;;;11.58;61.47;60889.13;5014150;28;20184;-67
2023/04/28 06:03:40;;;;;;;3.67;2.38;;;;;;;11.73;60.53;60880.44;5013911;28;20180;-69
2023/04/28 06:06:06;;;;;;;3.10;2.40;;;;;;;11.27;60.04;60840.03;5013961;28;20172;-67
2023/04/28 06:08:32;;;;;;;4.28;2.78;;;;;;;11.50;61.38;60832.09;5012894;28;20562;-69
2023/04/28 06:10:57;;;;;;;3.78;2.55;;;;;;;11.76;60.77;60940.69;5013354;28;20203;-69
2023/04/28 06:13:22;;;;;;;3.00;2.15;;;;;;;11.55;60.41;60837.72;5012844;28;20172;-68
2023/04/28 06:15:48;;;;;;;3.25;2.33;;;;;;;11.80;60.75;60870.97;5013945;28;20176;-68
2023/04/28 06:18:15;;;;;;;3.22;2.40;;;;;;;11.82;60.66;60852.75;5014371;28;20247;-67
2023/04/28 06:20:40;;;;;;;2.30;2.10;;;;;;;11.76;60.21;61091.06;5012870;28;20199;-66
2023/04/28 06:23:07;;;;;;;3.47;2.40;;;;;;;11.69;60.89;60873.38;5013591;28;20591;-67
2023/04/28 06:25:33;;;;;;;2.47;2.20;;;;;;;11.89;60.67;60896.44;5012649;28;20180;-69
2023/04/28 06:27:59;;;;;;;3.42;2.30;;;;;;;12.32;59.88;60913.00;5012551;28;20195;-68
2023/04/28 06:30:24;;;;;;;3.85;2.50;;;;;;;12.08;60.69;60926.97;5036591;28;20211;-69
2023/04/28 06:32:50;;;;;;;3.13;2.13;;;;;;;12.57;59.14;60971.34;5044863;28;20191;-67
2023/04/28 06:35:15;;;;;;;3.65;2.55;;;;;;;12.63;58.99;60980.66;5012612;28;20172;-67
2023/04/28 06:37:41;;;;;;;4.30;2.40;;;;;;;12.60;58.10;60936.84;5012472;28;20204;-68
2023/04/28 06:40:07;;;;;;;5.03;1.90;;;;;;;12.62;57.17;60946.81;5011973;28;20180;-69
2023/04/28 06:42:33;;;;;;;4.10;2.20;;;;;;;12.70;57.53;60970.63;5005134;28;20199;-70
2023/04/28 06:44:58;;;;;;;4.10;2.10;;;;;;;12.71;58.75;60964.06;5013379;28;20566;-68
2023/04/28 06:47:24;;;;;;;9.27;2.47;;;;;;;12.92;55.81;60962.06;4999201;28;20187;-70
2023/04/28 06:49:50;;;;;;;3.88;2.53;;;;;;;12.70;57.13;60991.69;5017911;28;20173;-68
2023/04/28 06:52:15;;;;;;;2.55;1.95;;;;;;;12.75;55.92;61135.16;5013128;28;20604;-68
2023/04/28 06:54:41;;;;;;;2.78;2.05;;;;;;;12.95;55.29;60985.97;5012260;28;20184;-66
2023/04/28 06:57:07;;;;;;;2.25;1.90;;;;;;;13.53;61.85;61068.75;5011994;28;20187;-61
2023/04/28 06:59:32;;;;;;;3.05;2.35;;;;;;;13.63;59.88;61092.88;5012495;28;20339;-60
2023/04/28 07:01:57;;;;;;;3.03;2.20;;;;;;;14.23;61.60;61130.63;5012906;28;20176;-64
2023/04/28 07:04:23;;;;;;;4.20;2.38;;;;;;;14.40;59.05;61160.09;5012727;28;20249;-60
2023/04/28 07:06:48;;;;;;;4.95;2.33;;;;;;;14.66;55.92;61129.75;5012545;28;20204;-65
2023/04/28 07:09:15;;;;;;;4.03;2.75;;;;;;;14.73;59.39;61145.38;5013121;28;20267;-64
2023/04/28 07:11:40;;;;;;;2.95;2.60;;;;;;;14.54;54.83;61137.91;5012435;28;20231;-62
2023/04/28 07:14:07;;;;;;;4.63;2.53;;;;;;;14.71;52.23;61171.94;5012652;28;20675;-62
2023/04/28 07:16:32;;;;;;;4.65;2.28;;;;;;;14.40;54.22;61132.38;5012462;28;20168;-61
2023/04/28 07:18:58;;;;;;;3.88;2.35;;;;;;;14.59;55.57;61387.78;5012559;28;20175;-61
2023/04/28 07:21:23;;;;;;;2.53;2.10;;;;;;;14.82;54.50;61170.94;5012408;28;20176;-60
2023/04/28 07:23:49;;;;;;;2.65;2.20;;;;;;;14.63;54.05;61172.63;5012652;28;20199;-59
2023/04/28 07:26:15;;;;;;;4.35;2.40;;;;;;;14.78;52.86;61205.00;5011149;28;20188;-62
2023/04/28 07:28:43;;;;;;;5.40;2.45;;;;;;;15.29;54.33;61445.34;5012597;28;20192;-63
2023/04/28 07:31:09;;;;;;;3.70;2.55;;;;;;;15.19;54.07;61235.31;5012119;28;20239;-63
2023/04/28 07:33:34;;;;;;;2.55;2.03;;;;;;;15.30;52.73;61232.88;5012035;28;20611;-61
2023/04/28 07:36:00;;;;;;;3.08;2.30;;;;;;;15.16;49.20;61255.09;5011914;28;20267;-63
2023/04/28 07:38:26;;;;;;;3.13;2.15;;;;;;;15.39;48.82;61232.16;5011891;28;20176;-62
2023/04/28 07:40:52;;;;;;;2.78;2.10;;;;;;;15.73;48.89;61272.59;5012045;28;20578;-62
2023/04/28 07:43:17;;;;;;;2.28;2.03;;;;;;;15.78;47.61;61285.97;5011984;28;20207;-61
2023/04/28 07:45:44;;;;;;;3.63;1.95;;;;;;;15.78;47.61;61273.66;5011661;28;20218;-60
2023/04/28 07:48:10;;;;;;;3.00;2.05;;;;;;;15.70;49.50;61258.91;5011996;28;20211;-62
2023/04/28 07:50:35;;;;;;;3.38;2.30;;;;;;;15.85;50.86;61312.50;5012274;28;20204;-62
2023/04/28 07:53:01;;;;;;;3.50;2.13;;;;;;;15.74;51.84;61287.16;5011791;28;20187;-62
2023/04/28 07:55:26;;;;;;;5.45;2.50;;;;;;;15.76;49.03;61270.84;5011554;28;20204;-59
2023/04/28 07:57:51;;;;;;;4.70;3.30;;;;;;;15.94;49.16;61306.63;5011917;28;20263;-64
2023/04/28 08:00:18;;;;;;;2.55;2.13;;;;;;;16.15;45.67;61304.03;5011850;28;20180;-64
2023/04/28 08:02:43;;;;;;;3.05;2.53;;;;;;;16.12;48.84;61324.41;5012293;28;20180;-64
2023/04/28 08:05:09;;;;;;;2.75;2.30;;;;;;;16.03;44.96;61301.34;5012506;28;20182;-64
2023/04/28 08:07:36;;;;;;;3.88;2.50;;;;;;;15.86;48.72;61266.69;5012219;28;20183;-61
2023/04/28 08:10:03;;;;;;;3.22;2.40;;;;;;;15.87;47.80;61446.13;5011859;28;20208;-63
2023/04/28 08:12:28;;;;;;;4.07;2.50;;;;;;;15.80;51.04;61263.06;5012302;28;20179;-63
2023/04/28 08:14:55;;;;;;;2.63;1.90;;;;;;;15.73;49.02;61252.56;5012311;28;20172;-63
2023/04/28 08:17:20;;;;;;;4.55;2.60;;;;;;;15.81;50.52;61469.69;5012170;28;20307;-65
2023/04/28 08:19:46;;;;;;;3.13;2.33;;;;;;;16.13;48.07;61322.97;5012017;28;20243;-61
2023/04/28 08:22:12;;;;;;;3.72;2.53;;;;;;;16.18;47.01;61338.94;5011981;28;20179;-63
2023/04/28 08:24:37;;;;;;;4.32;2.33;;;;;;;16.60;47.32;61380.72;5011856;28;20160;-61
2023/04/28 08:27:03;;;;;;;3.80;2.65;;;;;;;16.25;47.25;61330.81;5012263;28;20291;-62
2023/04/28 08:29:30;;;;;;;2.63;2.10;;;;;;;16.22;45.76;61335.72;5012355;28;20258;-61
2023/04/28 08:31:55;;;;;;;2.30;2.10;;;;;;;16.09;44.83;61254.00;5011766;28;20243;-63
2023/04/28 08:34:21;;;;;;;3.50;2.13;;;;;;;16.19;46.49;61303.97;5011645;28;20268;-63
2023/04/28 08:36:46;;;;;;;2.95;2.15;;;;;;;16.46;46.31;61333.91;5011811;28;20179;-64
2023/04/28 08:39:11;;;;;;;4.28;2.22;;;;;;;16.70;47.07;61386.28;5011760;28;20607;-63
2023/04/28 08:41:41;;;;;;;3.42;2.28;;;;;;;16.44;47.99;61351.72;5011693;28;20652;-62
2023/04/28 08:44:09;;;;;;;2.78;2.13;;;;;;;16.82;46.49;61404.47;5011910;28;20192;-63
2023/04/28 08:46:35;;;;;;;2.95;2.38;;;;;;;16.53;46.35;61341.25;5012030;28;20183;-62
2023/04/28 08:49:03;;;;;;;3.45;2.47;;;;;;;17.01;46.09;61387.25;5011844;28;20271;-62
2023/04/28 08:51:42;;;;;;;3.55;2.30;;;;;;;16.34;46.06;61356.44;5012933;28;20278;-61
2023/04/28 08:54:10;;;;;;;3.38;2.40;;;;;;;16.77;45.06;61358.69;5012255;28;20183;-63
2023/04/28 08:56:35;;;;;;;4.00;2.38;;;;;;;16.93;46.40;61373.03;5011896;28;20605;-62
2023/04/28 08:59:03;;;;;;;3.03;2.20;;;;;;;16.06;47.74;61262.94;5011736;28;20227;-62
2023/04/28 09:01:29;;;;;;;9.40;2.45;;;;;;;15.57;48.62;61237.06;5011597;28;20254;-62
2023/04/28 09:03:55;;;;;;;2.58;2.20;;;;;;;15.82;49.79;61283.31;5011716;28;20263;-61
2023/04/28 09:06:21;;;;;;;3.28;2.30;;;;;;;15.80;48.16;61309.41;5011295;28;20200;-64
2023/04/28 09:08:47;;;;;;;2.38;2.00;;;;;;;16.08;51.83;61281.22;5012062;28;20639;-64
2023/04/28 09:11:13;;;;;;;5.15;2.50;;;;;;;15.58;52.22;61245.38;5014882;28;20206;-63
2023/04/28 09:13:40;;;;;;;3.80;2.13;;;;;;;15.30;53.83;61206.56;5015459;28;20255;-62
2023/04/28 09:16:06;;;;;;;3.60;2.53;;;;;;;15.44;51.96;61255.84;5015215;28;20184;-63
2023/04/28 09:18:32;;;;;;;2.58;2.15;;;;;;;16.00;51.90;61249.00;5015225;28;20168;-61
2023/04/28 09:21:10;;;;;;;4.38;2.40;;;;;;;15.90;50.55;61296.97;5014834;28;20184;-63
2023/04/28 09:23:55;;;;;;;3.25;2.17;;;;;;;16.03;51.81;61298.22;5014996;28;20242;-64
2023/04/28 09:26:21;;;;;;;3.20;2.33;;;;;;;16.09;49.86;61328.19;5015113;28;20579;-62
2023/04/28 09:28:47;;;;;;;3.67;2.42;;;;;;;15.95;51.01;61294.31;5014998;28;20188;-62
2023/04/28 09:31:28;;;;;;;3.03;2.17;;;;;;;16.66;51.33;61397.81;5014568;28;20207;-63
2023/04/28 09:33:59;;;;;;;2.67;2.15;;;;;;;16.44;49.02;61346.56;5014643;28;20643;-63
2023/04/28 09:36:29;;;;;;;3.63;2.15;;;;;;;16.76;47.63;61444.69;5014791;28;20172;-62
2023/04/28 09:38:59;;;;;;;3.28;2.38;;;;;;;16.81;47.47;61367.78;5014610;28;20262;-61
2023/04/28 09:41:44;;;;;;;2.63;2.08;;;;;;;16.68;46.13;61363.97;5014820;28;20176;-61
2023/04/28 09:44:17;;;;;;;3.25;2.10;;;;;;;16.72;44.88;61349.88;5014480;28;20203;-63
2023/04/28 09:46:44;;;;;;;3.00;2.30;;;;;;;16.32;45.08;61331.53;5014970;28;20168;-64
2023/04/28 09:49:11;;;;;;;4.57;2.10;;;;;;;16.22;46.71;61281.03;5014618;28;20746;-63
2023/04/28 09:51:36;;;;;;;4.88;2.10;;;;;;;16.05;47.77;61378.31;5016548;28;20184;-61
2023/04/28 09:54:03;;;;;;;2.47;2.10;;;;;;;16.12;49.63;61300.66;5014055;28;20179;-63
2023/04/28 09:56:29;;;;;;;4.57;2.55;;;;;;;16.63;51.10;61335.09;5013707;28;20250;-63
2023/04/28 09:58:59;;;;;;;4.50;2.35;;;;;;;15.78;47.37;61291.69;5014116;28;20334;-63
2023/04/28 10:01:39;;;;;;;2.50;2.17;;;;;;;16.02;47.34;61297.06;5014558;28;20172;-63
2023/04/28 10:04:06;;;;;;;3.22;2.10;;;;;;;16.27;48.66;61402.69;4608357;28;20623;-62
2023/04/28 10:06:35;;;;;;;2.50;2.10;;;;;;;16.34;46.69;61320.91;5014258;28;20544;-62
2023/04/28 10:09:00;;;;;;;3.47;2.40;;;;;;;16.20;48.34;61274.16;5014277;28;20207;-64
2023/04/28 10:11:27;;;;;;;5.53;2.55;;;;;;;16.04;47.52;61299.34;5014429;28;20606;-64
2023/04/28 10:13:53;;;;;;;2.67;2.33;;;;;;;16.10;50.45;61270.03;5014227;28;20176;-61
2023/04/28 10:16:19;;;;;;;3.03;2.17;;;;;;;16.04;48.44;61315.38;5014111;28;20182;-63
2023/04/28 10:18:45;;;;;;;2.65;2.03;;;;;;;16.30;47.46;61344.75;5014227;28;20180;-63
2023/04/28 10:21:11;;;;;;;4.40;2.33;;;;;;;16.44;46.87;61370.34;5013837;28;20172;-62
2023/04/28 10:23:58;;;;;;;3.72;2.65;;;;;;;16.50;48.00;61317.81;5013807;28;20180;-63
2023/04/28 10:26:53;;;;;;;3.45;2.60;;;;;;;15.97;46.94;61283.69;5014303;28;20219;-63
2023/04/28 10:29:25;;;;;;;6.95;2.20;;;;;;;15.78;48.10;61278.81;5013818;28;20258;-63
2023/04/28 10:32:16;;;;;;;3.65;2.60;;;;;;;16.38;46.88;61329.47;5013439;28;20242;-63
2023/04/28 10:34:42;;;;;;;3.35;2.22;;;;;;;16.70;45.88;61399.19;5014112;28;20184;-63
2023/04/28 10:37:07;;;;;;;4.28;2.70;;;;;;;16.70;46.16;61378.56;5013736;28;20172;-62
2023/04/28 10:39:33;;;;;;;3.85;2.50;;;;;;;17.08;45.72;61390.00;5013231;28;20627;-65
2023/04/28 10:41:58;;;;;;;2.60;2.00;;;;;;;17.21;45.03;61438.84;5013728;28;20176;-62
2023/04/28 10:44:27;;;;;;;2.55;2.08;;;;;;;17.21;46.31;61391.81;5013611;28;20263;-64
2023/04/28 10:47:02;;;;;;;4.43;2.60;;;;;;;17.20;43.84;61457.81;5013421;28;20180;-65
2023/04/28 10:50:02;;;;;;;3.60;2.47;;;;;;;17.58;45.07;61489.94;5012329;28;20553;-64
2023/04/28 10:52:37;;;;;;;3.80;2.35;;;;;;;17.37;46.47;61393.84;5014657;28;20239;-64
2023/04/28 10:55:38;;;;;;;3.80;2.65;;;;;;;17.83;44.21;61458.81;5013354;28;20164;-61
2023/04/28 10:58:16;;;;;;;5.05;2.72;;;;;;;18.01;45.35;61525.72;5013216;28;20361;-62
2023/04/28 11:00:44;;;;;;;3.03;2.15;;;;;;;17.94;42.20;61504.88;5012843;28;20183;-64
2023/04/28 11:04:12;;;;;;;3.30;2.45;;;;;;;16.95;47.16;61403.69;5011924;28;20238;-61
2023/04/28 11:07:10;;;;;;;3.53;2.40;;;;;;;17.14;46.05;61428.34;5012535;28;20266;-61
2023/04/28 11:09:35;;;;;;;3.92;2.60;;;;;;;17.15;45.41;61374.72;5013008;28;20164;-62
2023/04/28 11:12:04;;;;;;;3.70;2.30;;;;;;;16.97;47.07;61344.56;5012687;28;20199;-63
2023/04/28 11:14:35;;;;;;;3.88;2.55;;;;;;;16.95;46.54;61422.34;5012718;28;20263;-63
2023/04/28 11:17:04;;;;;;;3.40;2.33;;;;;;;17.25;43.70;61355.00;5012440;28;20589;-61
2023/04/28 11:19:39;;;;;;;3.25;2.40;;;;;;;17.42;44.47;61373.69;5012701;28;20172;-63
2023/04/28 11:22:16;;;;;;;3.08;2.38;;;;;;;17.29;45.09;61397.72;5012629;28;20651;-61
2023/04/28 11:24:56;;;;;;;4.85;2.65;;;;;;;17.49;45.25;61462.22;5012598;28;20182;-63
2023/04/28 11:27:28;;;;;;;3.65;2.80;;;;;;;18.34;44.36;61567.16;5013019;28;20168;-61
2023/04/28 11:29:53;;;;;;;2.97;2.30;;;;;;;18.24;41.42;61542.91;5013030;28;20594;-60
2023/04/28 11:32:30;;;;;;;3.38;2.35;;;;;;;18.71;43.20;61534.06;5012526;28;20265;-64
2023/04/28 11:34:55;;;;;;;4.50;2.17;;;;;;;17.72;42.83;61443.22;5012798;28;20183;-62
2023/04/28 11:37:21;;;;;;;4.95;2.30;;;;;;;17.07;44.02;61404.94;5012956;28;20538;-63
2023/04/28 11:39:47;;;;;;;4.40;2.53;;;;;;;17.73;42.29;61459.84;5012729;28;20156;-64
2023/04/28 11:42:13;;;;;;;3.88;2.58;;;;;;;17.64;42.04;61450.25;5012782;28;20172;-65
2023/04/28 11:44:38;;;;;;;3.53;2.30;;;;;;;17.50;42.86;61437.53;5012463;28;20218;-64
2023/04/28 11:47:05;;;;;;;3.33;2.65;;;;;;;17.65;41.72;61462.28;5012348;28;20262;-64
2023/04/28 11:49:32;;;;;;;3.35;2.58;;;;;;;18.33;41.10;61476.06;5012495;28;20651;-62
2023/04/28 11:52:04;;;;;;;3.67;2.50;;;;;;;17.50;41.76;61460.22;5012441;28;20200;-61